createdAt,value
2022-08-05T00:00:29.878Z,96252.03
2022-08-05T00:03:26.856Z,96248.09
2022-08-05T00:06:33.147Z,96248.88
2022-08-05T00:09:32.949Z,96240.25
2022-08-05T00:12:29.909Z,96241.16
2022-08-05T00:15:56.413Z,96240.06
2022-08-05T00:18:48.217Z,96235.19
2022-08-05T00:21:45.583Z,96230.69
2022-08-05T00:24:42.845Z,96231.44
2022-08-05T00:27:40.250Z,96228.28
2022-08-05T00:30:41.099Z,96234.34
2022-08-05T00:34:56.562Z,96224.03
2022-08-05T00:37:10.959Z,96224.75
2022-08-05T00:40:09.909Z,96224.66
2022-08-05T00:43:07.436Z,96223.78
2022-08-05T00:46:04.799Z,96212.94
2022-08-05T00:49:01.705Z,96218.00
2022-08-05T00:51:59.708Z,96216.50
2022-08-05T00:54:56.601Z,96213.94
2022-08-05T00:57:58.472Z,96214.72
2022-08-05T01:00:56.389Z,96217.09
2022-08-05T01:03:53.393Z,96210.19
2022-08-05T01:06:51.786Z,96210.06
2022-08-05T01:09:55.585Z,96213.28
2022-08-05T01:13:22.228Z,96212.66
2022-08-05T01:16:49.232Z,96203.69
2022-08-05T01:20:14.525Z,96205.44
2022-08-05T01:23:58.975Z,96189.63
2022-08-05T01:27:50.651Z,96193.59
2022-08-05T01:31:08.415Z,96185.50
2022-08-05T01:34:22.239Z,96182.44
2022-08-05T01:37:44.683Z,96185.44
2022-08-05T01:40:42.397Z,96196.19
2022-08-05T01:43:40.052Z,96186.00
2022-08-05T01:46:41.910Z,96185.91
2022-08-05T01:50:00.487Z,96185.53
2022-08-05T01:53:11.676Z,96180.94
2022-08-05T01:56:11.625Z,96178.13
2022-08-05T01:59:15.494Z,96181.38
2022-08-05T02:02:12.890Z,96184.91
2022-08-05T02:05:14.853Z,96173.38
2022-08-05T02:08:12.795Z,96171.75
2022-08-05T02:11:32.743Z,96163.66
2022-08-05T02:15:00.982Z,96165.47
2022-08-05T02:18:33.135Z,96172.13
2022-08-05T02:21:30.483Z,96181.47
2022-08-05T02:24:45.459Z,96184.97
2022-08-05T02:27:59.319Z,96170.91
2022-08-05T02:31:02.277Z,96170.22
2022-08-05T02:34:10.112Z,96166.44
2022-08-05T02:37:10.192Z,96162.91
2022-08-05T02:40:09.639Z,96168.03
2022-08-05T02:43:07.530Z,96170.34
2022-08-05T02:46:06.103Z,96162.94
2022-08-05T02:49:05.864Z,96176.88
2022-08-05T02:52:30.262Z,96184.22
2022-08-05T02:55:53.700Z,96178.88
2022-08-05T02:58:51.527Z,96247.31
2022-08-05T03:01:54.365Z,96294.00
2022-08-05T03:04:53.636Z,96264.38
2022-08-05T03:08:01.649Z,96297.63
2022-08-05T03:11:56.873Z,96294.09
2022-08-05T03:14:34.376Z,96314.41
2022-08-05T03:17:44.872Z,96292.22
2022-08-05T03:20:44.576Z,96292.63
2022-08-05T03:23:46.527Z,96304.94
2022-08-05T03:26:43.433Z,96292.78
2022-08-05T03:30:08.121Z,96285.25
2022-08-05T03:33:06.182Z,96288.28
2022-08-05T03:36:06.661Z,96278.16
2022-08-05T03:39:12.944Z,96293.25
2022-08-05T03:42:16.813Z,96294.91
2022-08-05T03:45:21.399Z,96289.00
2022-08-05T03:48:23.235Z,96293.94
2022-08-05T03:52:49.414Z,96291.88
2022-08-05T03:56:04.042Z,96299.53
2022-08-05T03:58:12.760Z,96292.88
2022-08-05T04:01:11.407Z,96281.06
2022-08-05T04:04:12.569Z,96276.25
2022-08-05T04:07:14.408Z,96263.09
2022-08-05T04:10:12.847Z,96261.88
2022-08-05T04:13:14.675Z,96252.97
2022-08-05T04:16:14.362Z,96260.34
2022-08-05T04:19:13.140Z,96256.50
2022-08-05T04:22:12.212Z,96256.63
2022-08-05T04:25:10.880Z,96253.78
2022-08-05T04:28:12.795Z,96240.28
2022-08-05T04:31:10.638Z,96242.31
2022-08-05T04:34:31.572Z,96238.81
2022-08-05T04:38:01.417Z,96246.25
2022-08-05T04:40:44.552Z,96245.84
2022-08-05T04:43:52.147Z,96236.13
2022-08-05T04:46:49.956Z,96234.19
2022-08-05T04:50:02.046Z,96234.59
2022-08-05T04:53:08.512Z,96246.66
2022-08-05T04:56:14.724Z,96264.63
2022-08-05T04:59:39.214Z,96269.66
2022-08-05T05:02:41.877Z,96269.25
2022-08-05T05:06:40.505Z,96268.88
2022-08-05T05:08:57.149Z,96280.97
2022-08-05T05:12:00.278Z,96306.34
2022-08-05T05:14:59.690Z,96317.63
2022-08-05T05:18:01.063Z,96334.81
2022-08-05T05:20:58.580Z,96353.47
2022-08-05T05:24:02.925Z,96370.25
2022-08-05T05:27:01.353Z,96371.72
2022-08-05T05:30:03.917Z,96372.47
2022-08-05T05:33:15.856Z,96383.78
2022-08-05T05:36:14.712Z,96392.00
2022-08-05T05:39:13.157Z,96393.50
2022-08-05T05:42:11.161Z,96408.72
2022-08-05T05:45:10.944Z,96418.81
2022-08-05T05:48:11.002Z,96420.81
2022-08-05T05:51:22.510Z,96407.97
2022-08-05T05:54:19.747Z,96401.00
2022-08-05T05:57:19.176Z,96403.38
2022-08-05T06:00:21.348Z,96408.88
2022-08-05T06:03:39.824Z,96390.97
2022-08-05T06:06:47.660Z,96402.34
2022-08-05T06:10:00.169Z,96411.66
2022-08-05T06:13:00.488Z,96424.94
2022-08-05T06:16:30.644Z,96418.28
2022-08-05T06:19:32.905Z,96405.81
2022-08-05T06:22:34.400Z,96406.66
2022-08-05T06:26:13.765Z,96398.03
2022-08-05T06:28:48.125Z,96392.63
2022-08-05T06:31:44.951Z,96398.09
2022-08-05T06:34:42.748Z,96396.94
2022-08-05T06:37:58.326Z,96395.00
2022-08-05T06:40:56.409Z,96415.72
2022-08-05T06:44:00.375Z,96412.63
2022-08-05T06:46:58.138Z,96404.81
2022-08-05T06:50:00.807Z,96397.75
2022-08-05T06:53:11.527Z,96412.59
2022-08-05T06:56:26.666Z,96406.69
2022-08-05T06:59:23.921Z,96407.09
2022-08-05T07:02:22.872Z,96398.91
2022-08-05T07:05:22.315Z,96400.38
2022-08-05T07:08:28.773Z,96419.13
2022-08-05T07:11:28.563Z,96414.78
2022-08-05T07:14:43.845Z,96417.03
2022-08-05T07:17:59.044Z,96432.59
2022-08-05T07:20:58.104Z,96431.53
2022-08-05T07:24:01.749Z,96426.81
2022-08-05T07:26:59.556Z,96419.84
2022-08-05T07:30:24.328Z,96420.28
2022-08-05T07:33:17.378Z,96413.97
2022-08-05T07:36:20.609Z,96399.56
2022-08-05T07:40:03.789Z,96408.06
2022-08-05T07:42:36.399Z,96426.44
2022-08-05T07:45:57.416Z,96423.31
2022-08-05T07:49:01.517Z,96421.34
2022-08-05T07:52:01.553Z,96431.09
2022-08-05T07:54:58.745Z,96440.94
2022-08-05T07:58:02.846Z,96438.81
2022-08-05T08:01:00.826Z,96445.94
2022-08-05T08:04:03.163Z,96436.97
2022-08-05T08:07:01.153Z,96439.75
2022-08-05T08:10:02.575Z,96451.44
2022-08-05T08:12:59.575Z,96449.00
2022-08-05T08:16:35.878Z,96440.50
2022-08-05T08:20:10.743Z,96427.13
2022-08-05T08:22:39.210Z,96425.75
2022-08-05T08:25:58.999Z,96422.03
2022-08-05T08:28:59.774Z,96426.22
2022-08-05T08:31:59.415Z,96432.78
2022-08-05T08:34:56.758Z,96423.34
2022-08-05T08:37:56.325Z,96431.03
2022-08-05T08:40:53.672Z,96437.00
2022-08-05T08:45:25.307Z,96440.91
2022-08-05T08:47:48.117Z,96447.63
2022-08-05T08:51:03.372Z,96446.84
2022-08-05T08:53:48.650Z,96447.31
2022-08-05T08:56:47.798Z,96463.03
2022-08-05T08:59:48.955Z,96471.91
2022-08-05T09:02:46.608Z,96464.88
2022-08-05T09:06:08.500Z,96457.84
2022-08-05T09:09:03.321Z,96450.56
2022-08-05T09:12:12.261Z,96449.25
2022-08-05T09:15:17.481Z,96440.44
2022-08-05T09:18:17.269Z,96439.47
2022-08-05T09:21:20.849Z,96438.28
2022-08-05T09:24:31.878Z,96423.72
2022-08-05T09:28:04.705Z,96430.59
2022-08-05T09:31:23.529Z,96422.34
2022-08-05T09:34:26.400Z,96420.63
2022-08-05T09:38:12.374Z,96422.81
2022-08-05T09:40:51.820Z,96419.75
2022-08-05T09:43:49.714Z,96425.16
2022-08-05T09:46:51.758Z,96429.56
2022-08-05T09:50:00.695Z,96427.63
2022-08-05T09:52:59.387Z,96428.03
2022-08-05T09:56:05.076Z,96427.34
2022-08-05T09:59:17.165Z,96420.53
2022-08-05T10:02:14.411Z,96420.16
2022-08-05T10:05:21.062Z,96425.31
2022-08-05T10:08:37.291Z,96411.28
2022-08-05T10:11:35.205Z,96400.13
2022-08-05T10:14:32.402Z,96401.38
2022-08-05T10:17:38.050Z,96417.56
2022-08-05T10:20:50.519Z,96394.44
2022-08-05T10:24:00.112Z,96402.25
2022-08-05T10:27:00.535Z,96400.03
2022-08-05T10:30:06.638Z,96402.09
2022-08-05T10:33:15.435Z,96402.63
2022-08-05T10:36:12.468Z,96401.22
2022-08-05T10:39:24.261Z,96389.19
2022-08-05T10:42:33.729Z,96390.03
2022-08-05T10:45:40.527Z,96380.69
2022-08-05T10:48:56.719Z,96382.59
2022-08-05T10:52:03.326Z,96392.31
2022-08-05T10:55:06.345Z,96379.22
2022-08-05T10:58:11.702Z,96393.22
2022-08-05T11:01:12.533Z,96384.13
2022-08-05T11:04:17.933Z,96386.66
2022-08-05T11:07:19.079Z,96371.88
2022-08-05T11:10:31.836Z,96377.09
2022-08-05T11:13:57.578Z,96381.81
2022-08-05T11:17:56.777Z,96387.00
2022-08-05T11:20:46.110Z,96403.63
2022-08-05T11:24:05.286Z,96396.09
2022-08-05T11:27:50.785Z,96404.44
2022-08-05T11:31:06.143Z,96417.22
2022-08-05T11:34:08.075Z,96420.63
2022-08-05T11:37:06.206Z,96426.00
2022-08-05T11:41:13.944Z,96427.78
2022-08-05T11:44:40.407Z,96432.72
2022-08-05T11:47:48.828Z,96442.56
2022-08-05T11:50:51.337Z,96439.25
2022-08-05T11:53:49.558Z,96439.44
2022-08-05T11:56:53.257Z,96438.47
2022-08-05T11:59:50.771Z,96437.22
2022-08-05T12:02:48.282Z,96446.06
2022-08-05T12:05:45.206Z,96443.91
2022-08-05T12:08:51.208Z,96448.97
2022-08-05T12:11:48.575Z,96440.88
2022-08-05T12:14:49.448Z,96444.41
2022-08-05T12:18:02.879Z,96437.28
2022-08-05T12:21:19.909Z,96446.56
2022-08-05T12:24:20.978Z,96456.16
2022-08-05T12:27:32.638Z,96444.34
2022-08-05T12:30:38.328Z,96453.03
2022-08-05T12:33:45.050Z,96460.84
2022-08-05T12:36:45.565Z,96445.28
2022-08-05T12:39:44.689Z,96461.59
2022-08-05T12:42:46.186Z,96445.28
2022-08-05T12:45:56.514Z,96445.72
2022-08-05T12:49:13.141Z,96441.31
2022-08-05T12:52:22.842Z,96457.03
2022-08-05T12:55:32.491Z,96440.53
2022-08-05T12:58:49.756Z,96450.97
2022-08-05T13:02:07.948Z,96447.69
2022-08-05T13:05:12.685Z,96450.56
2022-08-05T13:08:11.417Z,96438.28
2022-08-05T13:11:08.368Z,96446.84
2022-08-05T13:14:19.360Z,96432.72
2022-08-05T13:17:20.459Z,96450.47
2022-08-05T13:20:24.705Z,96441.66
2022-08-05T13:23:23.858Z,96452.09
2022-08-05T13:26:29.856Z,96448.97
2022-08-05T13:29:37.648Z,96445.38
2022-08-05T13:32:42.228Z,96460.06
2022-08-05T13:35:51.842Z,96453.22
2022-08-05T13:38:51.993Z,96443.22
2022-08-05T13:41:48.902Z,96462.03
2022-08-05T13:44:46.496Z,96457.81
2022-08-05T13:48:08.628Z,96459.84
2022-08-05T13:51:07.920Z,96462.47
2022-08-05T13:54:12.332Z,96449.84
2022-08-05T13:57:11.391Z,96460.00
2022-08-05T14:00:12.608Z,96445.19
2022-08-05T14:03:10.052Z,96450.03
2022-08-05T14:06:26.050Z,96443.56
2022-08-05T14:09:23.812Z,96442.94
2022-08-05T14:12:32.780Z,96459.44
2022-08-05T14:16:05.084Z,96453.63
2022-08-05T14:18:46.831Z,96458.22
2022-08-05T14:22:10.447Z,96453.22
2022-08-05T14:25:00.739Z,96457.69
2022-08-05T14:27:58.435Z,96459.63
2022-08-05T14:30:57.641Z,96465.75
2022-08-05T14:34:00.132Z,96465.47
2022-08-05T14:36:57.551Z,96484.84
2022-08-05T14:39:56.830Z,96475.19
2022-08-05T14:42:53.987Z,96488.94
2022-08-05T14:45:52.665Z,96487.25
2022-08-05T14:48:50.439Z,96489.25
2022-08-05T14:51:49.759Z,96472.88
2022-08-05T14:54:53.052Z,96466.16
2022-08-05T14:57:56.003Z,96483.22
2022-08-05T15:00:58.338Z,96480.94
2022-08-05T15:03:57.256Z,96488.75
2022-08-05T15:06:54.208Z,96497.75
2022-08-05T15:09:54.055Z,96502.91
2022-08-05T15:13:01.000Z,96520.63
2022-08-05T15:16:00.185Z,96517.38
2022-08-05T15:18:57.303Z,96507.03
2022-08-05T15:22:00.301Z,96515.63
2022-08-05T15:24:59.263Z,96516.41
2022-08-05T15:27:56.321Z,96513.31
2022-08-05T15:30:53.601Z,96506.69
2022-08-05T15:34:04.331Z,96508.22
2022-08-05T15:37:06.590Z,96502.75
2022-08-05T15:41:02.074Z,96501.94
2022-08-05T15:43:28.876Z,96505.78
2022-08-05T15:46:42.408Z,96516.78
2022-08-05T15:49:53.622Z,96514.09
2022-08-05T15:52:57.665Z,96516.06
2022-08-05T15:56:02.298Z,96515.75
2022-08-05T15:59:00.086Z,96525.78
2022-08-05T16:01:56.993Z,96519.16
2022-08-05T16:04:57.799Z,96528.72
2022-08-05T16:07:54.636Z,96527.00
2022-08-05T16:10:53.951Z,96527.78
2022-08-05T16:13:50.776Z,96517.75
2022-08-05T16:16:47.887Z,96515.22
2022-08-05T16:20:05.525Z,96529.06
2022-08-05T16:23:03.584Z,96530.50
2022-08-05T16:26:10.764Z,96523.47
2022-08-05T16:29:09.554Z,96540.97
2022-08-05T16:32:09.933Z,96539.44
2022-08-05T16:35:08.158Z,96539.91
2022-08-05T16:38:15.352Z,96545.03
2022-08-05T16:42:14.140Z,96551.00
2022-08-05T16:44:32.501Z,96548.16
2022-08-05T16:47:40.862Z,96553.19
2022-08-05T16:50:46.559Z,96555.00
2022-08-05T16:54:04.050Z,96581.09
2022-08-05T16:57:02.165Z,96595.38
2022-08-05T17:00:00.334Z,96607.88
2022-08-05T17:02:59.739Z,96626.75
2022-08-05T17:05:59.715Z,96615.78
2022-08-05T17:08:56.649Z,96629.91
2022-08-05T17:11:59.927Z,96629.91
2022-08-05T17:14:57.171Z,96639.28
2022-08-05T17:17:55.531Z,96643.91
2022-08-05T17:20:54.994Z,96641.97
2022-08-05T17:24:05.020Z,96650.06
2022-08-05T17:27:05.081Z,96647.69
2022-08-05T17:30:12.202Z,96656.84
2022-08-05T17:33:16.022Z,96651.38
2022-08-05T17:36:32.774Z,96660.75
2022-08-05T17:39:34.561Z,96664.78
2022-08-05T17:42:32.370Z,96682.03
2022-08-05T17:45:38.723Z,96682.69
2022-08-05T17:48:35.934Z,96695.69
2022-08-05T17:51:40.273Z,96694.19
2022-08-05T17:54:37.706Z,96707.97
2022-08-05T17:57:34.542Z,96702.22
2022-08-05T18:00:34.652Z,96713.41
2022-08-05T18:03:59.023Z,96733.03
2022-08-05T18:06:50.495Z,96745.06
2022-08-05T18:09:58.752Z,96744.69
2022-08-05T18:12:57.366Z,96755.34
2022-08-05T18:15:54.193Z,96754.88
2022-08-05T18:18:51.374Z,96760.94
2022-08-05T18:22:09.353Z,96755.88
2022-08-05T18:25:06.857Z,96749.28
2022-08-05T18:28:05.190Z,96751.06
2022-08-05T18:31:02.437Z,96759.19
2022-08-05T18:33:59.362Z,96751.19
2022-08-05T18:36:56.973Z,96740.38
2022-08-05T18:40:34.235Z,96750.94
2022-08-05T18:43:16.933Z,96755.94
2022-08-05T18:46:14.247Z,96766.66
2022-08-05T18:49:30.363Z,96788.44
2022-08-05T18:52:36.010Z,96815.06
2022-08-05T18:55:37.482Z,96823.16
2022-08-05T18:58:36.173Z,96834.78
2022-08-05T19:01:48.114Z,96832.31
2022-08-05T19:05:01.105Z,96809.69
2022-08-05T19:08:13.445Z,96814.63
2022-08-05T19:11:12.236Z,96852.41
2022-08-05T19:14:38.105Z,96898.13
2022-08-05T19:17:28.516Z,96847.84
2022-08-05T19:20:48.512Z,96845.63
2022-08-05T19:24:07.035Z,96865.88
2022-08-05T19:27:04.146Z,96869.28
2022-08-05T19:30:03.370Z,96867.25
2022-08-05T19:33:01.068Z,96866.72
2022-08-05T19:36:02.151Z,96872.56
2022-08-05T19:39:01.371Z,96884.44
2022-08-05T19:42:06.103Z,96901.41
2022-08-05T19:45:07.127Z,96905.75
2022-08-05T19:48:05.457Z,96884.97
2022-08-05T19:51:03.410Z,96896.97
2022-08-05T19:54:03.364Z,96918.13
2022-08-05T19:57:06.850Z,96938.47
2022-08-05T20:00:07.833Z,96929.44
2022-08-05T20:03:08.952Z,96913.53
2022-08-05T20:06:15.546Z,96920.47
2022-08-05T20:09:13.898Z,96908.47
2022-08-05T20:12:11.251Z,96909.13
2022-08-05T20:15:09.145Z,96913.16
2022-08-05T20:18:09.786Z,96918.16
2022-08-05T20:21:16.627Z,96914.06
2022-08-05T20:24:16.033Z,96923.81
2022-08-05T20:27:12.996Z,96938.00
2022-08-05T20:30:13.213Z,96931.00
2022-08-05T20:33:10.066Z,96920.75
2022-08-05T20:36:07.201Z,96936.97
2022-08-05T20:39:07.198Z,96932.84
2022-08-05T20:42:11.569Z,96936.03
2022-08-05T20:45:09.907Z,96950.97
2022-08-05T20:48:06.956Z,96939.16
2022-08-05T20:51:07.908Z,96930.31
2022-08-05T20:54:05.379Z,96945.31
2022-08-05T20:57:10.895Z,96942.88
2022-08-05T21:00:34.865Z,96969.22
2022-08-05T21:03:34.314Z,96977.16
2022-08-05T21:06:31.595Z,96982.22
2022-08-05T21:09:30.067Z,96978.59
2022-08-05T21:12:27.230Z,96975.00
2022-08-05T21:15:25.248Z,96980.56
2022-08-05T21:18:31.727Z,96982.09
2022-08-05T21:21:39.391Z,96976.38
2022-08-05T21:24:41.627Z,96964.06
2022-08-05T21:27:40.234Z,96973.41
2022-08-05T21:30:44.447Z,96980.09
2022-08-05T21:33:41.618Z,96982.09
2022-08-05T21:36:39.374Z,96994.47
2022-08-05T21:39:40.763Z,96997.81
2022-08-05T21:42:44.196Z,96998.75
2022-08-05T21:45:56.932Z,97002.84
2022-08-05T21:48:57.009Z,97000.03
2022-08-05T21:52:22.856Z,97011.56
2022-08-05T21:55:13.830Z,97017.97
2022-08-05T21:58:11.767Z,97012.09
2022-08-05T22:01:08.801Z,97029.03
2022-08-05T22:04:07.816Z,97034.78
2022-08-05T22:07:10.495Z,97037.88
2022-08-05T22:10:10.199Z,97038.81
2022-08-05T22:14:04.976Z,97040.66
2022-08-05T22:16:41.307Z,97035.03
2022-08-05T22:20:00.269Z,97034.25
2022-08-05T22:23:16.849Z,97032.34
2022-08-05T22:26:36.814Z,97043.94
2022-08-05T22:29:33.663Z,97039.72
2022-08-05T22:32:31.448Z,97043.09
2022-08-05T22:35:31.009Z,97048.91
2022-08-05T22:38:48.324Z,97047.47
2022-08-05T22:42:09.646Z,97043.78
2022-08-05T22:45:04.103Z,97043.09
2022-08-05T22:48:01.432Z,97038.25
2022-08-05T22:50:59.243Z,97046.53
2022-08-05T22:53:56.412Z,97042.59
2022-08-05T22:56:53.259Z,97045.81
2022-08-05T22:59:54.157Z,97048.06
2022-08-05T23:02:53.179Z,97056.88
2022-08-05T23:05:50.363Z,97045.84
2022-08-05T23:08:52.143Z,97051.97
2022-08-05T23:11:50.163Z,97054.91
2022-08-05T23:14:47.111Z,97063.59
2022-08-05T23:18:00.409Z,97062.03
2022-08-05T23:20:59.517Z,97072.41
2022-08-05T23:23:56.375Z,97079.50
2022-08-05T23:26:53.286Z,97086.50
2022-08-05T23:29:50.688Z,97083.38
2022-08-05T23:32:47.806Z,97096.56
2022-08-05T23:35:46.287Z,97092.66
2022-08-05T23:38:43.419Z,97090.97
2022-08-05T23:41:41.124Z,97092.50
2022-08-05T23:44:45.328Z,97102.75
2022-08-05T23:47:53.633Z,97106.88
2022-08-05T23:50:56.132Z,97109.16
2022-08-05T23:54:01.060Z,97118.16
2022-08-05T23:57:03.912Z,97110.84
